EDXW/GWT METAR and TAF weather

Enter ICAO airport designator
Station Type Date Time Source
EDXW METAR 2021/09/16 11:20 UTC NOAA

EDXW 161120Z 32013KT 9999 SCT012 BKN041TCU 19/16 Q1009


Station Type Date Time Source
EDXW Decoded METAR 2021/09/16 11:20 UTC NOAA

Westerland / Sylt, Germany (EDXW) 54-55N 008-21E 20M
Sep 16, 2021 - 07:20 AM EDT / 2021.09.16 1120 UTC
Wind: from the NW (320 degrees) at 15 MPH (13 KT):0
Visibility: greater than 7 mile(s):0
Sky conditions: mostly cloudy
Weather: Towering cumulus clouds observed
Temperature: 66 F (19 C)
Dew Point: 60 F (16 C)
Relative Humidity: 82%
Pressure (altimeter): 29.80 in. Hg (1009 hPa)
ob: EDXW 161120Z 32013KT 9999 SCT012 BKN041TCU 19/16 Q1009
cycle: 11

Station Type Date Time Source
EDXW TAF 2009/07/07 14:00 UTC NOAA

TAF EDXW 071400Z 0715/0719 22015G25KT 9999 SCT020

Example: see airport list